Airfield :
LOGIN :

Register | Disclaimer

   EN    FR    IT 

 










Legend :    VFR   Marginal VFR   IFR   Intensive IFR   Very Intensive IFR
Visi :
Ceiling :
>= 8 km
>= 3000ft
5 to 8 km
1000 to 3000 ft
1500m to 5 km
500 to 1000 ft
800 to 1500m
200 to 500 ft
< 800m
< 200 ft
Symbols :   Thunderstorms  Fog  Heavy snow  Heavy precipitations  Wind > 20 kt
SIGMETs :     Misc.  Thunderstorms  Icing  Turbulence  Mountain Waves  Volcanic Ashes







- Airport Elevation : 659 ft
- IATA code : LGG


EBLG - Liège

CURRENT METAR :
  • 231420Z 30009KT 260V330 9999 FEW032 20/10 Q1021 NOSIG

EXPIRED METARs :
  • 231350Z 30011KT 270V340 9999 SCT032 21/11 Q1021 NOSIG
  • 231320Z 30010KT 280V360 9999 SCT032 20/11 Q1020 NOSIG
  • 231250Z 29010KT 250V320 9999 SCT034 20/11 Q1020 NOSIG
  • 231220Z 28011KT 250V310 9999 SCT035 21/12 Q1020 NOSIG
  • 231150Z 28012KT 240V310 9999 SCT035 21/12 Q1020 NOSIG

TAF TAF EBLG
Valid from the 23 at 12:00 until the 24 at 18:00 UTC


231130Z 2312/2418 33010KT 9999 FEW030 SCT040
BECMG 2321/2323 24004KT
TEMPO 2404/2407 BKN010
PROB30
TEMPO 2404/2406 BKN004
No reported NOTAMs for that airfield.



MET'MAP, your aeronautical weather chart ! - Copyright ORBIFLY December 2007 - Disclaimer

ORBIFLY MET'MAP TEAM :

Programming & Development : Alexandra Zaïnal
Concept & Development : Baudouin d'Aumeries
Co-Development & Prog : Marc-Olivier Méhu
Technical & hardware support : Manuel Goepfert

Contact : metmap@orbifly.com




SOURCES & CREDITS :

   NOAA